Terminal Aerodrome Forecast
Issued by NWS

Home | Current Version | Previous Version | Text Only | Print | Product List | Glossary On
Versions: 1 2 3 4 5 6 7 8 9 10 11 12 13 14
000
FTUS46 KSGX 282328
TAFCRQ
TAF
KCRQ 282328Z 2900/2924 26009KT P6SM FEW020
     FM290200 VRB04KT P6SM BKN011
     FM290600 VRB03KT 5SM BR OVC007
     FM291600 VRB04KT 5SM HZ BKN010
     FM291800 24008KT P6SM FEW015=

USA.gov is the U.S. government's official web portal to all federal, state and local government web resources and services.